<?xml version="1.0" encoding="UTF-8" standalone="no" ?>
<gpx xmlns="http://www.topografix.com/GPX/1/1" xmlns:xsi="http://www.w3.org/2001/XMLSchema-instance" xsi:schemaLocation="http://www.topografix.com/GPX/1/1 http://www.topografix.com/GPX/1/1/gpx.xsd" version="1.1" creator="VisuGPX - https://www.visugpx.com">
  <metadata>
    <name>Patrunsa</name>
    <desc><![CDATA[Descente chalet de Patrunsa]]></desc>
  </metadata>
  <trk>
    <name><![CDATA[Ro  Barbetesti Patrunsa]]></name>
    <desc><![CDATA[2 août 2010  1:17 pm]]></desc>
    <trkseg>
      <trkpt lat="45.20807" lon="24.10458">
        <ele>641.581182</ele>
        <time>2010-08-02T10:22:14Z</time>
      </trkpt>
      <trkpt lat="45.20808" lon="24.10462">
        <ele>641.531599</ele>
        <time>2010-08-02T10:22:19Z</time>
      </trkpt>
      <trkpt lat="45.20808" lon="24.10467">
        <ele>641.522786</ele>
        <time>2010-08-02T10:22:22Z</time>
      </trkpt>
      <trkpt lat="45.2081" lon="24.10474">
        <ele>654.203884</ele>
        <time>2010-08-02T10:22:29Z</time>
      </trkpt>
      <trkpt lat="45.2081" lon="24.10474">
        <ele>687.221131</ele>
        <time>2010-08-02T10:22:37Z</time>
      </trkpt>
      <trkpt lat="45.20838" lon="24.10453">
        <ele>721.247646</ele>
        <time>2010-08-02T10:23:28Z</time>
      </trkpt>
      <trkpt lat="45.20841" lon="24.1045">
        <ele>737.959429</ele>
        <time>2010-08-02T10:23:32Z</time>
      </trkpt>
      <trkpt lat="45.20844" lon="24.10447">
        <ele>741.481355</ele>
        <time>2010-08-02T10:23:37Z</time>
      </trkpt>
      <trkpt lat="45.20844" lon="24.10447">
        <ele>739.78269</ele>
        <time>2010-08-02T10:23:45Z</time>
      </trkpt>
      <trkpt lat="45.20844" lon="24.10447">
        <ele>737.757861</ele>
        <time>2010-08-02T10:24:03Z</time>
      </trkpt>
      <trkpt lat="45.20844" lon="24.10447">
        <ele>736.857422</ele>
        <time>2010-08-02T10:24:18Z</time>
      </trkpt>
      <trkpt lat="45.20844" lon="24.10447">
        <ele>736.757243</ele>
        <time>2010-08-02T10:24:19Z</time>
      </trkpt>
      <trkpt lat="45.20846" lon="24.1043">
        <ele>736.938467</ele>
        <time>2010-08-02T10:24:28Z</time>
      </trkpt>
      <trkpt lat="45.20846" lon="24.1043">
        <ele>737.103285</ele>
        <time>2010-08-02T10:24:32Z</time>
      </trkpt>
      <trkpt lat="45.20869" lon="24.10403">
        <ele>737.421916</ele>
        <time>2010-08-02T10:25:30Z</time>
      </trkpt>
      <trkpt lat="45.20869" lon="24.10403">
        <ele>737.791114</ele>
        <time>2010-08-02T10:25:34Z</time>
      </trkpt>
      <trkpt lat="45.20869" lon="24.10403">
        <ele>737.705952</ele>
        <time>2010-08-02T10:26:01Z</time>
      </trkpt>
      <trkpt lat="45.20879" lon="24.10366">
        <ele>737.261528</ele>
        <time>2010-08-02T10:27:04Z</time>
      </trkpt>
      <trkpt lat="45.2088" lon="24.10362">
        <ele>737.818044</ele>
        <time>2010-08-02T10:27:13Z</time>
      </trkpt>
      <trkpt lat="45.2088" lon="24.10362">
        <ele>739.102931</ele>
        <time>2010-08-02T10:27:33Z</time>
      </trkpt>
      <trkpt lat="45.20898" lon="24.10332">
        <ele>740.454734</ele>
        <time>2010-08-02T10:28:59Z</time>
      </trkpt>
      <trkpt lat="45.20898" lon="24.10332">
        <ele>741.696991</ele>
        <time>2010-08-02T10:29:03Z</time>
      </trkpt>
      <trkpt lat="45.20898" lon="24.10332">
        <ele>742.010861</ele>
        <time>2010-08-02T10:29:24Z</time>
      </trkpt>
      <trkpt lat="45.20911" lon="24.10297">
        <ele>743.006528</ele>
        <time>2010-08-02T10:30:12Z</time>
      </trkpt>
      <trkpt lat="45.20911" lon="24.10297">
        <ele>745.467815</ele>
        <time>2010-08-02T10:30:15Z</time>
      </trkpt>
      <trkpt lat="45.20911" lon="24.10297">
        <ele>745.920752</ele>
        <time>2010-08-02T10:30:53Z</time>
      </trkpt>
      <trkpt lat="45.20939" lon="24.10289">
        <ele>744.381108</ele>
        <time>2010-08-02T10:32:04Z</time>
      </trkpt>
      <trkpt lat="45.20939" lon="24.10289">
        <ele>743.574194</ele>
        <time>2010-08-02T10:32:13Z</time>
      </trkpt>
      <trkpt lat="45.2095" lon="24.10251">
        <ele>743.618172</ele>
        <time>2010-08-02T10:32:36Z</time>
      </trkpt>
      <trkpt lat="45.20954" lon="24.10245">
        <ele>745.879024</ele>
        <time>2010-08-02T10:32:42Z</time>
      </trkpt>
      <trkpt lat="45.20956" lon="24.10242">
        <ele>753.253471</ele>
        <time>2010-08-02T10:32:45Z</time>
      </trkpt>
      <trkpt lat="45.2096" lon="24.10238">
        <ele>764.002473</ele>
        <time>2010-08-02T10:32:51Z</time>
      </trkpt>
      <trkpt lat="45.20961" lon="24.10234">
        <ele>772.312873</ele>
        <time>2010-08-02T10:32:55Z</time>
      </trkpt>
      <trkpt lat="45.20963" lon="24.10231">
        <ele>775.637559</ele>
        <time>2010-08-02T10:33:00Z</time>
      </trkpt>
      <trkpt lat="45.20966" lon="24.10228">
        <ele>775.76979</ele>
        <time>2010-08-02T10:33:06Z</time>
      </trkpt>
      <trkpt lat="45.20966" lon="24.10228">
        <ele>774.921944</ele>
        <time>2010-08-02T10:33:11Z</time>
      </trkpt>
      <trkpt lat="45.20966" lon="24.10228">
        <ele>774.246716</ele>
        <time>2010-08-02T10:33:32Z</time>
      </trkpt>
      <trkpt lat="45.20994" lon="24.10222">
        <ele>773.980538</ele>
        <time>2010-08-02T10:49:06Z</time>
      </trkpt>
      <trkpt lat="45.20997" lon="24.1022">
        <ele>773.972769</ele>
        <time>2010-08-02T10:49:10Z</time>
      </trkpt>
      <trkpt lat="45.21001" lon="24.10217">
        <ele>774.149135</ele>
        <time>2010-08-02T10:49:16Z</time>
      </trkpt>
      <trkpt lat="45.21005" lon="24.10214">
        <ele>778.796352</ele>
        <time>2010-08-02T10:49:21Z</time>
      </trkpt>
      <trkpt lat="45.21009" lon="24.10212">
        <ele>790.341549</ele>
        <time>2010-08-02T10:49:27Z</time>
      </trkpt>
      <trkpt lat="45.21013" lon="24.10211">
        <ele>802.15256</ele>
        <time>2010-08-02T10:49:32Z</time>
      </trkpt>
      <trkpt lat="45.21017" lon="24.10211">
        <ele>808.000543</ele>
        <time>2010-08-02T10:49:36Z</time>
      </trkpt>
      <trkpt lat="45.2102" lon="24.1021">
        <ele>809.170984</ele>
        <time>2010-08-02T10:49:40Z</time>
      </trkpt>
      <trkpt lat="45.21023" lon="24.10208">
        <ele>808.384892</ele>
        <time>2010-08-02T10:49:43Z</time>
      </trkpt>
      <trkpt lat="45.21027" lon="24.10207">
        <ele>807.460292</ele>
        <time>2010-08-02T10:49:49Z</time>
      </trkpt>
      <trkpt lat="45.2103" lon="24.10207">
        <ele>807.127177</ele>
        <time>2010-08-02T10:49:55Z</time>
      </trkpt>
      <trkpt lat="45.2103" lon="24.10207">
        <ele>807.396112</ele>
        <time>2010-08-02T10:50:04Z</time>
      </trkpt>
      <trkpt lat="45.21059" lon="24.10203">
        <ele>807.831432</ele>
        <time>2010-08-02T10:50:53Z</time>
      </trkpt>
      <trkpt lat="45.21062" lon="24.10205">
        <ele>808.082153</ele>
        <time>2010-08-02T10:50:57Z</time>
      </trkpt>
      <trkpt lat="45.21067" lon="24.10205">
        <ele>807.887871</ele>
        <time>2010-08-02T10:51:04Z</time>
      </trkpt>
      <trkpt lat="45.21069" lon="24.10205">
        <ele>807.17335</ele>
        <time>2010-08-02T10:51:08Z</time>
      </trkpt>
      <trkpt lat="45.21072" lon="24.10203">
        <ele>806.400071</ele>
        <time>2010-08-02T10:51:12Z</time>
      </trkpt>
      <trkpt lat="45.21076" lon="24.10201">
        <ele>805.866423</ele>
        <time>2010-08-02T10:51:17Z</time>
      </trkpt>
      <trkpt lat="45.21079" lon="24.10199">
        <ele>805.429475</ele>
        <time>2010-08-02T10:51:20Z</time>
      </trkpt>
      <trkpt lat="45.21085" lon="24.10195">
        <ele>804.976598</ele>
        <time>2010-08-02T10:51:26Z</time>
      </trkpt>
      <trkpt lat="45.21089" lon="24.10192">
        <ele>804.366381</ele>
        <time>2010-08-02T10:51:30Z</time>
      </trkpt>
      <trkpt lat="45.21093" lon="24.10189">
        <ele>803.642388</ele>
        <time>2010-08-02T10:51:34Z</time>
      </trkpt>
      <trkpt lat="45.21097" lon="24.10185">
        <ele>802.8573</ele>
        <time>2010-08-02T10:51:41Z</time>
      </trkpt>
      <trkpt lat="45.21096" lon="24.10181">
        <ele>801.961249</ele>
        <time>2010-08-02T10:51:44Z</time>
      </trkpt>
      <trkpt lat="45.21096" lon="24.10181">
        <ele>801.234781</ele>
        <time>2010-08-02T10:51:50Z</time>
      </trkpt>
      <trkpt lat="45.21096" lon="24.10181">
        <ele>800.938453</ele>
        <time>2010-08-02T10:52:12Z</time>
      </trkpt>
      <trkpt lat="45.21122" lon="24.10197">
        <ele>800.912691</ele>
        <time>2010-08-02T10:52:37Z</time>
      </trkpt>
      <trkpt lat="45.21124" lon="24.102">
        <ele>800.972395</ele>
        <time>2010-08-02T10:52:43Z</time>
      </trkpt>
      <trkpt lat="45.21124" lon="24.102">
        <ele>800.924249</ele>
        <time>2010-08-02T10:52:52Z</time>
      </trkpt>
      <trkpt lat="45.21124" lon="24.102">
        <ele>800.685067</ele>
        <time>2010-08-02T10:53:52Z</time>
      </trkpt>
      <trkpt lat="45.21145" lon="24.10243">
        <ele>800.518929</ele>
        <time>2010-08-02T10:53:57Z</time>
      </trkpt>
      <trkpt lat="45.21146" lon="24.10246">
        <ele>801.068001</ele>
        <time>2010-08-02T10:54:02Z</time>
      </trkpt>
      <trkpt lat="45.21146" lon="24.10246">
        <ele>802.406484</ele>
        <time>2010-08-02T10:54:13Z</time>
      </trkpt>
      <trkpt lat="45.21169" lon="24.10273">
        <ele>803.814602</ele>
        <time>2010-08-02T10:55:03Z</time>
      </trkpt>
      <trkpt lat="45.21174" lon="24.10272">
        <ele>805.991684</ele>
        <time>2010-08-02T10:55:07Z</time>
      </trkpt>
      <trkpt lat="45.21179" lon="24.10269">
        <ele>809.807811</ele>
        <time>2010-08-02T10:55:13Z</time>
      </trkpt>
      <trkpt lat="45.21181" lon="24.10266">
        <ele>814.385767</ele>
        <time>2010-08-02T10:55:20Z</time>
      </trkpt>
      <trkpt lat="45.21182" lon="24.10262">
        <ele>818.415036</ele>
        <time>2010-08-02T10:55:25Z</time>
      </trkpt>
      <trkpt lat="45.21181" lon="24.10258">
        <ele>820.969616</ele>
        <time>2010-08-02T10:55:30Z</time>
      </trkpt>
      <trkpt lat="45.21181" lon="24.10254">
        <ele>821.880722</ele>
        <time>2010-08-02T10:55:36Z</time>
      </trkpt>
      <trkpt lat="45.21181" lon="24.10254">
        <ele>822.093972</ele>
        <time>2010-08-02T10:55:40Z</time>
      </trkpt>
      <trkpt lat="45.21181" lon="24.10254">
        <ele>822.132913</ele>
        <time>2010-08-02T10:56:02Z</time>
      </trkpt>
      <trkpt lat="45.21192" lon="24.10214">
        <ele>822.239612</ele>
        <time>2010-08-02T10:57:36Z</time>
      </trkpt>
      <trkpt lat="45.21194" lon="24.10209">
        <ele>822.702917</ele>
        <time>2010-08-02T10:57:43Z</time>
      </trkpt>
      <trkpt lat="45.21197" lon="24.10206">
        <ele>823.691426</ele>
        <time>2010-08-02T10:57:49Z</time>
      </trkpt>
      <trkpt lat="45.212" lon="24.10205">
        <ele>827.301923</ele>
        <time>2010-08-02T10:57:55Z</time>
      </trkpt>
      <trkpt lat="45.21203" lon="24.10204">
        <ele>834.363382</ele>
        <time>2010-08-02T10:58:00Z</time>
      </trkpt>
      <trkpt lat="45.21203" lon="24.10204">
        <ele>840.993677</ele>
        <time>2010-08-02T10:58:03Z</time>
      </trkpt>
      <trkpt lat="45.21203" lon="24.10204">
        <ele>843.967467</ele>
        <time>2010-08-02T10:59:49Z</time>
      </trkpt>
      <trkpt lat="45.21228" lon="24.10189">
        <ele>844.314536</ele>
        <time>2010-08-02T11:00:50Z</time>
      </trkpt>
      <trkpt lat="45.2123" lon="24.10184">
        <ele>843.728219</ele>
        <time>2010-08-02T11:00:54Z</time>
      </trkpt>
      <trkpt lat="45.21234" lon="24.1018">
        <ele>843.188441</ele>
        <time>2010-08-02T11:00:59Z</time>
      </trkpt>
      <trkpt lat="45.21239" lon="24.10173">
        <ele>845.574981</ele>
        <time>2010-08-02T11:01:09Z</time>
      </trkpt>
      <trkpt lat="45.21243" lon="24.10169">
        <ele>852.387128</ele>
        <time>2010-08-02T11:01:14Z</time>
      </trkpt>
      <trkpt lat="45.21245" lon="24.10166">
        <ele>859.455037</ele>
        <time>2010-08-02T11:01:17Z</time>
      </trkpt>
      <trkpt lat="45.21249" lon="24.10162">
        <ele>863.105289</ele>
        <time>2010-08-02T11:01:23Z</time>
      </trkpt>
      <trkpt lat="45.21251" lon="24.10157">
        <ele>864.486501</ele>
        <time>2010-08-02T11:01:27Z</time>
      </trkpt>
      <trkpt lat="45.21255" lon="24.10147">
        <ele>865.155606</ele>
        <time>2010-08-02T11:01:34Z</time>
      </trkpt>
      <trkpt lat="45.21257" lon="24.10142">
        <ele>865.659378</ele>
        <time>2010-08-02T11:01:38Z</time>
      </trkpt>
      <trkpt lat="45.21259" lon="24.10139">
        <ele>865.985732</ele>
        <time>2010-08-02T11:01:42Z</time>
      </trkpt>
      <trkpt lat="45.21261" lon="24.10135">
        <ele>866.087603</ele>
        <time>2010-08-02T11:01:47Z</time>
      </trkpt>
      <trkpt lat="45.21263" lon="24.10131">
        <ele>865.794865</ele>
        <time>2010-08-02T11:01:51Z</time>
      </trkpt>
      <trkpt lat="45.21265" lon="24.10128">
        <ele>864.895559</ele>
        <time>2010-08-02T11:01:55Z</time>
      </trkpt>
      <trkpt lat="45.21267" lon="24.10125">
        <ele>863.632197</ele>
        <time>2010-08-02T11:02:00Z</time>
      </trkpt>
      <trkpt lat="45.21267" lon="24.10125">
        <ele>862.544259</ele>
        <time>2010-08-02T11:02:07Z</time>
      </trkpt>
      <trkpt lat="45.21299" lon="24.10137">
        <ele>861.809771</ele>
        <time>2010-08-02T11:02:43Z</time>
      </trkpt>
      <trkpt lat="45.21301" lon="24.10138">
        <ele>861.173273</ele>
        <time>2010-08-02T11:02:47Z</time>
      </trkpt>
      <trkpt lat="45.21304" lon="24.1014">
        <ele>860.2334</ele>
        <time>2010-08-02T11:02:50Z</time>
      </trkpt>
      <trkpt lat="45.21308" lon="24.10141">
        <ele>857.399712</ele>
        <time>2010-08-02T11:02:54Z</time>
      </trkpt>
      <trkpt lat="45.21312" lon="24.10143">
        <ele>852.050287</ele>
        <time>2010-08-02T11:02:58Z</time>
      </trkpt>
      <trkpt lat="45.21314" lon="24.10146">
        <ele>846.920957</ele>
        <time>2010-08-02T11:03:01Z</time>
      </trkpt>
      <trkpt lat="45.21317" lon="24.10149">
        <ele>844.449867</ele>
        <time>2010-08-02T11:03:05Z</time>
      </trkpt>
      <trkpt lat="45.2132" lon="24.10152">
        <ele>844.053153</ele>
        <time>2010-08-02T11:03:08Z</time>
      </trkpt>
      <trkpt lat="45.21322" lon="24.10153">
        <ele>844.458907</ele>
        <time>2010-08-02T11:03:11Z</time>
      </trkpt>
      <trkpt lat="45.21326" lon="24.10154">
        <ele>844.877053</ele>
        <time>2010-08-02T11:03:15Z</time>
      </trkpt>
      <trkpt lat="45.21331" lon="24.10157">
        <ele>845.075877</ele>
        <time>2010-08-02T11:03:24Z</time>
      </trkpt>
      <trkpt lat="45.21335" lon="24.10158">
        <ele>845.106246</ele>
        <time>2010-08-02T11:03:28Z</time>
      </trkpt>
      <trkpt lat="45.21343" lon="24.10156">
        <ele>845.072434</ele>
        <time>2010-08-02T11:03:32Z</time>
      </trkpt>
      <trkpt lat="45.21345" lon="24.10155">
        <ele>845.038355</ele>
        <time>2010-08-02T11:03:35Z</time>
      </trkpt>
      <trkpt lat="45.21349" lon="24.10154">
        <ele>845.022362</ele>
        <time>2010-08-02T11:03:39Z</time>
      </trkpt>
      <trkpt lat="45.21353" lon="24.10152">
        <ele>845.020047</ele>
        <time>2010-08-02T11:03:43Z</time>
      </trkpt>
      <trkpt lat="45.21353" lon="24.10152">
        <ele>844.887454</ele>
        <time>2010-08-02T11:03:52Z</time>
      </trkpt>
      <trkpt lat="45.21372" lon="24.10125">
        <ele>844.672961</ele>
        <time>2010-08-02T11:04:11Z</time>
      </trkpt>
      <trkpt lat="45.21376" lon="24.10127">
        <ele>844.803074</ele>
        <time>2010-08-02T11:04:16Z</time>
      </trkpt>
      <trkpt lat="45.21379" lon="24.1013">
        <ele>845.353423</ele>
        <time>2010-08-02T11:04:20Z</time>
      </trkpt>
      <trkpt lat="45.21382" lon="24.1013">
        <ele>846.144729</ele>
        <time>2010-08-02T11:04:23Z</time>
      </trkpt>
      <trkpt lat="45.21385" lon="24.10133">
        <ele>847.233109</ele>
        <time>2010-08-02T11:04:26Z</time>
      </trkpt>
      <trkpt lat="45.21387" lon="24.10134">
        <ele>848.634773</ele>
        <time>2010-08-02T11:04:30Z</time>
      </trkpt>
      <trkpt lat="45.21393" lon="24.10138">
        <ele>850.305181</ele>
        <time>2010-08-02T11:04:35Z</time>
      </trkpt>
      <trkpt lat="45.21396" lon="24.1014">
        <ele>852.226592</ele>
        <time>2010-08-02T11:04:39Z</time>
      </trkpt>
      <trkpt lat="45.21399" lon="24.10141">
        <ele>854.121999</ele>
        <time>2010-08-02T11:04:42Z</time>
      </trkpt>
      <trkpt lat="45.21402" lon="24.10144">
        <ele>856.084883</ele>
        <time>2010-08-02T11:04:45Z</time>
      </trkpt>
      <trkpt lat="45.21405" lon="24.10145">
        <ele>858.459344</ele>
        <time>2010-08-02T11:04:48Z</time>
      </trkpt>
      <trkpt lat="45.21408" lon="24.10147">
        <ele>861.02663</ele>
        <time>2010-08-02T11:04:51Z</time>
      </trkpt>
      <trkpt lat="45.21412" lon="24.10148">
        <ele>863.345292</ele>
        <time>2010-08-02T11:04:54Z</time>
      </trkpt>
      <trkpt lat="45.21415" lon="24.10148">
        <ele>865.422056</ele>
        <time>2010-08-02T11:04:57Z</time>
      </trkpt>
      <trkpt lat="45.21419" lon="24.10148">
        <ele>867.387759</ele>
        <time>2010-08-02T11:05:00Z</time>
      </trkpt>
      <trkpt lat="45.21422" lon="24.10148">
        <ele>869.338871</ele>
        <time>2010-08-02T11:05:03Z</time>
      </trkpt>
      <trkpt lat="45.21425" lon="24.10148">
        <ele>871.310654</ele>
        <time>2010-08-02T11:05:07Z</time>
      </trkpt>
      <trkpt lat="45.21429" lon="24.10148">
        <ele>873.163961</ele>
        <time>2010-08-02T11:05:11Z</time>
      </trkpt>
      <trkpt lat="45.21432" lon="24.10147">
        <ele>874.804478</ele>
        <time>2010-08-02T11:05:15Z</time>
      </trkpt>
      <trkpt lat="45.21487" lon="24.10162">
        <ele>877.487531</ele>
        <time>2010-08-02T11:14:30Z</time>
      </trkpt>
      <trkpt lat="45.21487" lon="24.10162">
        <ele>877.482151</ele>
        <time>2010-08-02T11:14:36Z</time>
      </trkpt>
      <trkpt lat="45.21513" lon="24.10171">
        <ele>877.437037</ele>
        <time>2010-08-02T11:15:21Z</time>
      </trkpt>
      <trkpt lat="45.21516" lon="24.10172">
        <ele>879.114816</ele>
        <time>2010-08-02T11:15:25Z</time>
      </trkpt>
      <trkpt lat="45.21519" lon="24.10173">
        <ele>883.63095</ele>
        <time>2010-08-02T11:15:29Z</time>
      </trkpt>
      <trkpt lat="45.21522" lon="24.10174">
        <ele>888.713221</ele>
        <time>2010-08-02T11:15:33Z</time>
      </trkpt>
      <trkpt lat="45.21525" lon="24.10175">
        <ele>892.016131</ele>
        <time>2010-08-02T11:15:37Z</time>
      </trkpt>
      <trkpt lat="45.21529" lon="24.10175">
        <ele>893.604466</ele>
        <time>2010-08-02T11:15:43Z</time>
      </trkpt>
      <trkpt lat="45.21532" lon="24.10175">
        <ele>894.113754</ele>
        <time>2010-08-02T11:15:46Z</time>
      </trkpt>
      <trkpt lat="45.21536" lon="24.10174">
        <ele>894.182346</ele>
        <time>2010-08-02T11:15:51Z</time>
      </trkpt>
      <trkpt lat="45.21542" lon="24.10171">
        <ele>894.088818</ele>
        <time>2010-08-02T11:15:58Z</time>
      </trkpt>
      <trkpt lat="45.21546" lon="24.1017">
        <ele>894.137122</ele>
        <time>2010-08-02T11:16:03Z</time>
      </trkpt>
      <trkpt lat="45.21551" lon="24.10168">
        <ele>894.594258</ele>
        <time>2010-08-02T11:16:07Z</time>
      </trkpt>
      <trkpt lat="45.21555" lon="24.10167">
        <ele>895.318412</ele>
        <time>2010-08-02T11:16:11Z</time>
      </trkpt>
      <trkpt lat="45.21559" lon="24.10166">
        <ele>895.87088</ele>
        <time>2010-08-02T11:16:15Z</time>
      </trkpt>
      <trkpt lat="45.21561" lon="24.10166">
        <ele>896.07999</ele>
        <time>2010-08-02T11:16:19Z</time>
      </trkpt>
      <trkpt lat="45.21565" lon="24.10165">
        <ele>896.079823</ele>
        <time>2010-08-02T11:16:22Z</time>
      </trkpt>
      <trkpt lat="45.21568" lon="24.10164">
        <ele>895.881939</ele>
        <time>2010-08-02T11:16:25Z</time>
      </trkpt>
      <trkpt lat="45.21571" lon="24.10162">
        <ele>895.477198</ele>
        <time>2010-08-02T11:16:28Z</time>
      </trkpt>
      <trkpt lat="45.21574" lon="24.10161">
        <ele>894.952872</ele>
        <time>2010-08-02T11:16:31Z</time>
      </trkpt>
      <trkpt lat="45.21579" lon="24.1016">
        <ele>894.279751</ele>
        <time>2010-08-02T11:16:35Z</time>
      </trkpt>
      <trkpt lat="45.21582" lon="24.10157">
        <ele>893.528814</ele>
        <time>2010-08-02T11:16:38Z</time>
      </trkpt>
      <trkpt lat="45.21582" lon="24.10157">
        <ele>892.952637</ele>
        <time>2010-08-02T11:16:49Z</time>
      </trkpt>
      <trkpt lat="45.21582" lon="24.10157">
        <ele>892.539641</ele>
        <time>2010-08-02T11:17:06Z</time>
      </trkpt>
      <trkpt lat="45.21608" lon="24.10141">
        <ele>892.192772</ele>
        <time>2010-08-02T11:17:34Z</time>
      </trkpt>
      <trkpt lat="45.21612" lon="24.10139">
        <ele>892.049609</ele>
        <time>2010-08-02T11:17:38Z</time>
      </trkpt>
      <trkpt lat="45.21614" lon="24.10137">
        <ele>892.176156</ele>
        <time>2010-08-02T11:17:42Z</time>
      </trkpt>
      <trkpt lat="45.21617" lon="24.10135">
        <ele>892.312106</ele>
        <time>2010-08-02T11:17:48Z</time>
      </trkpt>
      <trkpt lat="45.2162" lon="24.10132">
        <ele>892.24291</ele>
        <time>2010-08-02T11:17:52Z</time>
      </trkpt>
      <trkpt lat="45.2162" lon="24.10132">
        <ele>892.079071</ele>
        <time>2010-08-02T11:17:59Z</time>
      </trkpt>
      <trkpt lat="45.2164" lon="24.10104">
        <ele>891.975585</ele>
        <time>2010-08-02T11:18:45Z</time>
      </trkpt>
      <trkpt lat="45.2164" lon="24.10104">
        <ele>891.944449</ele>
        <time>2010-08-02T11:18:48Z</time>
      </trkpt>
      <trkpt lat="45.21666" lon="24.10086">
        <ele>891.950521</ele>
        <time>2010-08-02T11:19:38Z</time>
      </trkpt>
      <trkpt lat="45.21669" lon="24.10084">
        <ele>891.963958</ele>
        <time>2010-08-02T11:19:41Z</time>
      </trkpt>
      <trkpt lat="45.21671" lon="24.10081">
        <ele>892.248688</ele>
        <time>2010-08-02T11:19:45Z</time>
      </trkpt>
      <trkpt lat="45.21674" lon="24.10079">
        <ele>893.523653</ele>
        <time>2010-08-02T11:19:49Z</time>
      </trkpt>
      <trkpt lat="45.21677" lon="24.10077">
        <ele>895.83974</ele>
        <time>2010-08-02T11:19:53Z</time>
      </trkpt>
      <trkpt lat="45.2168" lon="24.10075">
        <ele>898.026792</ele>
        <time>2010-08-02T11:19:57Z</time>
      </trkpt>
      <trkpt lat="45.21683" lon="24.10075">
        <ele>899.149655</ele>
        <time>2010-08-02T11:20:03Z</time>
      </trkpt>
      <trkpt lat="45.21685" lon="24.10074">
        <ele>899.370869</ele>
        <time>2010-08-02T11:20:07Z</time>
      </trkpt>
      <trkpt lat="45.21688" lon="24.10073">
        <ele>899.355463</ele>
        <time>2010-08-02T11:20:10Z</time>
      </trkpt>
      <trkpt lat="45.21692" lon="24.10073">
        <ele>899.675015</ele>
        <time>2010-08-02T11:20:14Z</time>
      </trkpt>
      <trkpt lat="45.21695" lon="24.10072">
        <ele>900.452039</ele>
        <time>2010-08-02T11:20:18Z</time>
      </trkpt>
      <trkpt lat="45.21698" lon="24.10072">
        <ele>901.339453</ele>
        <time>2010-08-02T11:20:22Z</time>
      </trkpt>
      <trkpt lat="45.21701" lon="24.1007">
        <ele>902.061723</ele>
        <time>2010-08-02T11:20:27Z</time>
      </trkpt>
      <trkpt lat="45.21701" lon="24.1007">
        <ele>902.607988</ele>
        <time>2010-08-02T11:20:35Z</time>
      </trkpt>
      <trkpt lat="45.21701" lon="24.1007">
        <ele>902.951148</ele>
        <time>2010-08-02T11:20:52Z</time>
      </trkpt>
      <trkpt lat="45.21723" lon="24.10095">
        <ele>903.191727</ele>
        <time>2010-08-02T11:21:42Z</time>
      </trkpt>
      <trkpt lat="45.21725" lon="24.101">
        <ele>903.530848</ele>
        <time>2010-08-02T11:21:47Z</time>
      </trkpt>
      <trkpt lat="45.21727" lon="24.10106">
        <ele>904.131843</ele>
        <time>2010-08-02T11:21:53Z</time>
      </trkpt>
      <trkpt lat="45.21727" lon="24.10106">
        <ele>904.999121</ele>
        <time>2010-08-02T11:22:01Z</time>
      </trkpt>
      <trkpt lat="45.21727" lon="24.10106">
        <ele>905.479928</ele>
        <time>2010-08-02T11:22:19Z</time>
      </trkpt>
      <trkpt lat="45.21752" lon="24.10086">
        <ele>906.325894</ele>
        <time>2010-08-02T11:23:30Z</time>
      </trkpt>
      <trkpt lat="45.21752" lon="24.10086">
        <ele>908.852671</ele>
        <time>2010-08-02T11:23:31Z</time>
      </trkpt>
      <trkpt lat="45.21752" lon="24.10086">
        <ele>911.044163</ele>
        <time>2010-08-02T11:23:32Z</time>
      </trkpt>
      <trkpt lat="45.21778" lon="24.10076">
        <ele>909.025845</ele>
        <time>2010-08-02T11:24:44Z</time>
      </trkpt>
      <trkpt lat="45.21778" lon="24.10076">
        <ele>907.936096</ele>
        <time>2010-08-02T11:24:48Z</time>
      </trkpt>
      <trkpt lat="45.21806" lon="24.10067">
        <ele>907.903902</ele>
        <time>2010-08-02T11:25:34Z</time>
      </trkpt>
      <trkpt lat="45.2181" lon="24.10067">
        <ele>908.730779</ele>
        <time>2010-08-02T11:25:38Z</time>
      </trkpt>
      <trkpt lat="45.21813" lon="24.10068">
        <ele>913.088969</ele>
        <time>2010-08-02T11:25:42Z</time>
      </trkpt>
      <trkpt lat="45.21816" lon="24.10069">
        <ele>923.348023</ele>
        <time>2010-08-02T11:25:47Z</time>
      </trkpt>
      <trkpt lat="45.21819" lon="24.1007">
        <ele>934.805012</ele>
        <time>2010-08-02T11:25:53Z</time>
      </trkpt>
      <trkpt lat="45.21822" lon="24.10071">
        <ele>941.464493</ele>
        <time>2010-08-02T11:25:57Z</time>
      </trkpt>
      <trkpt lat="45.21824" lon="24.10072">
        <ele>943.46383</ele>
        <time>2010-08-02T11:26:00Z</time>
      </trkpt>
      <trkpt lat="45.21829" lon="24.10074">
        <ele>943.208005</ele>
        <time>2010-08-02T11:26:03Z</time>
      </trkpt>
      <trkpt lat="45.21832" lon="24.10074">
        <ele>942.445976</ele>
        <time>2010-08-02T11:26:06Z</time>
      </trkpt>
      <trkpt lat="45.21835" lon="24.10076">
        <ele>941.945846</ele>
        <time>2010-08-02T11:26:09Z</time>
      </trkpt>
      <trkpt lat="45.21838" lon="24.10076">
        <ele>941.786885</ele>
        <time>2010-08-02T11:26:12Z</time>
      </trkpt>
      <trkpt lat="45.21842" lon="24.10077">
        <ele>941.809849</ele>
        <time>2010-08-02T11:26:16Z</time>
      </trkpt>
      <trkpt lat="45.21845" lon="24.10077">
        <ele>941.872409</ele>
        <time>2010-08-02T11:26:19Z</time>
      </trkpt>
      <trkpt lat="45.21848" lon="24.10078">
        <ele>942.051088</ele>
        <time>2010-08-02T11:26:23Z</time>
      </trkpt>
      <trkpt lat="45.21852" lon="24.10079">
        <ele>942.42361</ele>
        <time>2010-08-02T11:26:29Z</time>
      </trkpt>
      <trkpt lat="45.21855" lon="24.1008">
        <ele>942.92918</ele>
        <time>2010-08-02T11:26:34Z</time>
      </trkpt>
      <trkpt lat="45.21858" lon="24.10082">
        <ele>943.4592</ele>
        <time>2010-08-02T11:26:40Z</time>
      </trkpt>
      <trkpt lat="45.21862" lon="24.10086">
        <ele>943.851886</ele>
        <time>2010-08-02T11:26:46Z</time>
      </trkpt>
      <trkpt lat="45.21864" lon="24.10089">
        <ele>944.134336</ele>
        <time>2010-08-02T11:26:51Z</time>
      </trkpt>
      <trkpt lat="45.21866" lon="24.10092">
        <ele>944.629009</ele>
        <time>2010-08-02T11:26:54Z</time>
      </trkpt>
      <trkpt lat="45.2187" lon="24.10102">
        <ele>945.452853</ele>
        <time>2010-08-02T11:27:02Z</time>
      </trkpt>
      <trkpt lat="45.21872" lon="24.10105">
        <ele>946.463755</ele>
        <time>2010-08-02T11:27:06Z</time>
      </trkpt>
      <trkpt lat="45.21874" lon="24.10108">
        <ele>947.521531</ele>
        <time>2010-08-02T11:27:10Z</time>
      </trkpt>
      <trkpt lat="45.21874" lon="24.10108">
        <ele>948.423079</ele>
        <time>2010-08-02T11:27:19Z</time>
      </trkpt>
      <trkpt lat="45.219" lon="24.10126">
        <ele>949.075985</ele>
        <time>2010-08-02T11:28:01Z</time>
      </trkpt>
      <trkpt lat="45.21903" lon="24.10127">
        <ele>949.566063</ele>
        <time>2010-08-02T11:28:05Z</time>
      </trkpt>
      <trkpt lat="45.21906" lon="24.10128">
        <ele>949.886736</ele>
        <time>2010-08-02T11:28:08Z</time>
      </trkpt>
      <trkpt lat="45.21909" lon="24.10128">
        <ele>951.508195</ele>
        <time>2010-08-02T11:28:12Z</time>
      </trkpt>
      <trkpt lat="45.21912" lon="24.1013">
        <ele>955.590145</ele>
        <time>2010-08-02T11:28:17Z</time>
      </trkpt>
      <trkpt lat="45.21916" lon="24.10132">
        <ele>960.111768</ele>
        <time>2010-08-02T11:28:25Z</time>
      </trkpt>
      <trkpt lat="45.21916" lon="24.10132">
        <ele>962.743002</ele>
        <time>2010-08-02T11:28:30Z</time>
      </trkpt>
      <trkpt lat="45.21941" lon="24.10151">
        <ele>963.709644</ele>
        <time>2010-08-02T11:29:06Z</time>
      </trkpt>
      <trkpt lat="45.21943" lon="24.10153">
        <ele>963.942816</ele>
        <time>2010-08-02T11:29:10Z</time>
      </trkpt>
      <trkpt lat="45.21946" lon="24.10155">
        <ele>964.257268</ele>
        <time>2010-08-02T11:29:16Z</time>
      </trkpt>
      <trkpt lat="45.21949" lon="24.10156">
        <ele>965.077442</ele>
        <time>2010-08-02T11:29:21Z</time>
      </trkpt>
      <trkpt lat="45.21952" lon="24.10157">
        <ele>966.275112</ele>
        <time>2010-08-02T11:29:25Z</time>
      </trkpt>
      <trkpt lat="45.21955" lon="24.10158">
        <ele>967.336198</ele>
        <time>2010-08-02T11:29:29Z</time>
      </trkpt>
      <trkpt lat="45.21958" lon="24.10159">
        <ele>967.931034</ele>
        <time>2010-08-02T11:29:33Z</time>
      </trkpt>
      <trkpt lat="45.21961" lon="24.1016">
        <ele>968.214181</ele>
        <time>2010-08-02T11:29:36Z</time>
      </trkpt>
      <trkpt lat="45.21964" lon="24.10161">
        <ele>968.789959</ele>
        <time>2010-08-02T11:29:40Z</time>
      </trkpt>
      <trkpt lat="45.21967" lon="24.10163">
        <ele>969.93058</ele>
        <time>2010-08-02T11:29:45Z</time>
      </trkpt>
      <trkpt lat="45.21969" lon="24.10164">
        <ele>971.294757</ele>
        <time>2010-08-02T11:29:52Z</time>
      </trkpt>
      <trkpt lat="45.21969" lon="24.10164">
        <ele>972.389749</ele>
        <time>2010-08-02T11:29:55Z</time>
      </trkpt>
      <trkpt lat="45.21969" lon="24.10164">
        <ele>972.962639</ele>
        <time>2010-08-02T11:30:11Z</time>
      </trkpt>
      <trkpt lat="45.21998" lon="24.10166">
        <ele>973.219623</ele>
        <time>2010-08-02T11:31:33Z</time>
      </trkpt>
      <trkpt lat="45.22001" lon="24.10167">
        <ele>973.78198</ele>
        <time>2010-08-02T11:31:37Z</time>
      </trkpt>
      <trkpt lat="45.22004" lon="24.10168">
        <ele>975.196319</ele>
        <time>2010-08-02T11:31:41Z</time>
      </trkpt>
      <trkpt lat="45.22008" lon="24.1017">
        <ele>978.6639</ele>
        <time>2010-08-02T11:31:46Z</time>
      </trkpt>
      <trkpt lat="45.22011" lon="24.10171">
        <ele>984.098819</ele>
        <time>2010-08-02T11:31:50Z</time>
      </trkpt>
      <trkpt lat="45.22014" lon="24.10172">
        <ele>988.717662</ele>
        <time>2010-08-02T11:31:54Z</time>
      </trkpt>
      <trkpt lat="45.22018" lon="24.10172">
        <ele>990.642346</ele>
        <time>2010-08-02T11:31:57Z</time>
      </trkpt>
      <trkpt lat="45.22021" lon="24.10172">
        <ele>990.77363</ele>
        <time>2010-08-02T11:32:00Z</time>
      </trkpt>
      <trkpt lat="45.22025" lon="24.10173">
        <ele>990.323965</ele>
        <time>2010-08-02T11:32:03Z</time>
      </trkpt>
      <trkpt lat="45.22028" lon="24.10173">
        <ele>990.086604</ele>
        <time>2010-08-02T11:32:06Z</time>
      </trkpt>
      <trkpt lat="45.22031" lon="24.10173">
        <ele>990.292223</ele>
        <time>2010-08-02T11:32:09Z</time>
      </trkpt>
      <trkpt lat="45.22037" lon="24.10173">
        <ele>990.790827</ele>
        <time>2010-08-02T11:32:13Z</time>
      </trkpt>
      <trkpt lat="45.2204" lon="24.10172">
        <ele>991.363162</ele>
        <time>2010-08-02T11:32:17Z</time>
      </trkpt>
      <trkpt lat="45.22043" lon="24.10171">
        <ele>991.927832</ele>
        <time>2010-08-02T11:32:20Z</time>
      </trkpt>
      <trkpt lat="45.22052" lon="24.10166">
        <ele>992.721716</ele>
        <time>2010-08-02T11:32:25Z</time>
      </trkpt>
      <trkpt lat="45.22055" lon="24.10165">
        <ele>993.807955</ele>
        <time>2010-08-02T11:32:32Z</time>
      </trkpt>
      <trkpt lat="45.22059" lon="24.10164">
        <ele>994.674931</ele>
        <time>2010-08-02T11:32:37Z</time>
      </trkpt>
      <trkpt lat="45.22059" lon="24.10164">
        <ele>995.017373</ele>
        <time>2010-08-02T11:32:44Z</time>
      </trkpt>
      <trkpt lat="45.22086" lon="24.1016">
        <ele>995.027858</ele>
        <time>2010-08-02T11:33:08Z</time>
      </trkpt>
      <trkpt lat="45.22089" lon="24.10159">
        <ele>995.07635</ele>
        <time>2010-08-02T11:33:13Z</time>
      </trkpt>
      <trkpt lat="45.22092" lon="24.10159">
        <ele>995.503992</ele>
        <time>2010-08-02T11:33:17Z</time>
      </trkpt>
      <trkpt lat="45.22096" lon="24.10159">
        <ele>996.344091</ele>
        <time>2010-08-02T11:33:21Z</time>
      </trkpt>
      <trkpt lat="45.22099" lon="24.10159">
        <ele>997.386315</ele>
        <time>2010-08-02T11:33:25Z</time>
      </trkpt>
      <trkpt lat="45.22102" lon="24.10159">
        <ele>998.601191</ele>
        <time>2010-08-02T11:33:29Z</time>
      </trkpt>
      <trkpt lat="45.22105" lon="24.1016">
        <ele>1000.144291</ele>
        <time>2010-08-02T11:33:34Z</time>
      </trkpt>
      <trkpt lat="45.22111" lon="24.1016">
        <ele>1002.023191</ele>
        <time>2010-08-02T11:33:42Z</time>
      </trkpt>
      <trkpt lat="45.22114" lon="24.10161">
        <ele>1004.061082</ele>
        <time>2010-08-02T11:33:50Z</time>
      </trkpt>
      <trkpt lat="45.22117" lon="24.10161">
        <ele>1006.122853</ele>
        <time>2010-08-02T11:33:56Z</time>
      </trkpt>
      <trkpt lat="45.2212" lon="24.1016">
        <ele>1008.295458</ele>
        <time>2010-08-02T11:34:00Z</time>
      </trkpt>
      <trkpt lat="45.22123" lon="24.10161">
        <ele>1010.524234</ele>
        <time>2010-08-02T11:34:04Z</time>
      </trkpt>
      <trkpt lat="45.22123" lon="24.10161">
        <ele>1012.251695</ele>
        <time>2010-08-02T11:34:10Z</time>
      </trkpt>
      <trkpt lat="45.22142" lon="24.10164">
        <ele>1013.053838</ele>
        <time>2010-08-02T11:34:27Z</time>
      </trkpt>
      <trkpt lat="45.22145" lon="24.10163">
        <ele>1013.441185</ele>
        <time>2010-08-02T11:34:32Z</time>
      </trkpt>
      <trkpt lat="45.22147" lon="24.10162">
        <ele>1014.015882</ele>
        <time>2010-08-02T11:34:36Z</time>
      </trkpt>
      <trkpt lat="45.2215" lon="24.10161">
        <ele>1014.752205</ele>
        <time>2010-08-02T11:34:39Z</time>
      </trkpt>
      <trkpt lat="45.22155" lon="24.10159">
        <ele>1015.674494</ele>
        <time>2010-08-02T11:34:43Z</time>
      </trkpt>
      <trkpt lat="45.22162" lon="24.10158">
        <ele>1017.084737</ele>
        <time>2010-08-02T11:34:48Z</time>
      </trkpt>
      <trkpt lat="45.22165" lon="24.10157">
        <ele>1018.80892</ele>
        <time>2010-08-02T11:34:52Z</time>
      </trkpt>
      <trkpt lat="45.2217" lon="24.10157">
        <ele>1020.512336</ele>
        <time>2010-08-02T11:34:57Z</time>
      </trkpt>
      <trkpt lat="45.22173" lon="24.10157">
        <ele>1021.952141</ele>
        <time>2010-08-02T11:35:01Z</time>
      </trkpt>
      <trkpt lat="45.22176" lon="24.10158">
        <ele>1022.964018</ele>
        <time>2010-08-02T11:35:05Z</time>
      </trkpt>
      <trkpt lat="45.22182" lon="24.10159">
        <ele>1023.708848</ele>
        <time>2010-08-02T11:35:12Z</time>
      </trkpt>
      <trkpt lat="45.22185" lon="24.1016">
        <ele>1024.374793</ele>
        <time>2010-08-02T11:35:16Z</time>
      </trkpt>
      <trkpt lat="45.22188" lon="24.10162">
        <ele>1024.801521</ele>
        <time>2010-08-02T11:35:20Z</time>
      </trkpt>
      <trkpt lat="45.22191" lon="24.10163">
        <ele>1024.932662</ele>
        <time>2010-08-02T11:35:23Z</time>
      </trkpt>
      <trkpt lat="45.22194" lon="24.10165">
        <ele>1024.909692</ele>
        <time>2010-08-02T11:35:27Z</time>
      </trkpt>
      <trkpt lat="45.22197" lon="24.10165">
        <ele>1024.855054</ele>
        <time>2010-08-02T11:35:31Z</time>
      </trkpt>
      <trkpt lat="45.222" lon="24.10165">
        <ele>1024.682335</ele>
        <time>2010-08-02T11:35:34Z</time>
      </trkpt>
      <trkpt lat="45.22204" lon="24.10165">
        <ele>1024.173859</ele>
        <time>2010-08-02T11:35:37Z</time>
      </trkpt>
      <trkpt lat="45.22207" lon="24.10165">
        <ele>1023.30837</ele>
        <time>2010-08-02T11:35:40Z</time>
      </trkpt>
      <trkpt lat="45.22211" lon="24.10165">
        <ele>1022.408263</ele>
        <time>2010-08-02T11:35:43Z</time>
      </trkpt>
      <trkpt lat="45.22214" lon="24.10165">
        <ele>1021.701654</ele>
        <time>2010-08-02T11:35:47Z</time>
      </trkpt>
      <trkpt lat="45.22214" lon="24.10165">
        <ele>1021.170782</ele>
        <time>2010-08-02T11:35:57Z</time>
      </trkpt>
      <trkpt lat="45.22243" lon="24.10167">
        <ele>1020.79351</ele>
        <time>2010-08-02T11:36:28Z</time>
      </trkpt>
      <trkpt lat="45.22247" lon="24.10169">
        <ele>1020.487746</ele>
        <time>2010-08-02T11:36:33Z</time>
      </trkpt>
      <trkpt lat="45.22251" lon="24.1017">
        <ele>1020.006297</ele>
        <time>2010-08-02T11:36:37Z</time>
      </trkpt>
      <trkpt lat="45.22258" lon="24.10172">
        <ele>1019.378444</ele>
        <time>2010-08-02T11:36:45Z</time>
      </trkpt>
      <trkpt lat="45.22261" lon="24.10173">
        <ele>1018.767138</ele>
        <time>2010-08-02T11:36:56Z</time>
      </trkpt>
      <trkpt lat="45.22261" lon="24.10173">
        <ele>1018.230359</ele>
        <time>2010-08-02T11:36:58Z</time>
      </trkpt>
      <trkpt lat="45.22294" lon="24.10172">
        <ele>1017.862717</ele>
        <time>2010-08-02T11:37:36Z</time>
      </trkpt>
      <trkpt lat="45.22298" lon="24.10176">
        <ele>1017.739202</ele>
        <time>2010-08-02T11:37:39Z</time>
      </trkpt>
      <trkpt lat="45.22301" lon="24.10179">
        <ele>1017.718897</ele>
        <time>2010-08-02T11:37:42Z</time>
      </trkpt>
      <trkpt lat="45.22305" lon="24.10181">
        <ele>1017.573209</ele>
        <time>2010-08-02T11:37:45Z</time>
      </trkpt>
      <trkpt lat="45.22314" lon="24.10185">
        <ele>1017.10271</ele>
        <time>2010-08-02T11:37:54Z</time>
      </trkpt>
      <trkpt lat="45.22317" lon="24.10185">
        <ele>1016.428432</ele>
        <time>2010-08-02T11:37:57Z</time>
      </trkpt>
      <trkpt lat="45.22321" lon="24.10185">
        <ele>1015.779097</ele>
        <time>2010-08-02T11:38:00Z</time>
      </trkpt>
      <trkpt lat="45.22324" lon="24.10184">
        <ele>1015.226949</ele>
        <time>2010-08-02T11:38:02Z</time>
      </trkpt>
      <trkpt lat="45.22328" lon="24.10183">
        <ele>1014.858585</ele>
        <time>2010-08-02T11:38:05Z</time>
      </trkpt>
      <trkpt lat="45.22332" lon="24.10183">
        <ele>1014.738906</ele>
        <time>2010-08-02T11:38:08Z</time>
      </trkpt>
      <trkpt lat="45.22336" lon="24.10182">
        <ele>1014.753868</ele>
        <time>2010-08-02T11:38:11Z</time>
      </trkpt>
      <trkpt lat="45.22339" lon="24.10182">
        <ele>1014.937395</ele>
        <time>2010-08-02T11:38:14Z</time>
      </trkpt>
      <trkpt lat="45.22339" lon="24.10182">
        <ele>1015.327126</ele>
        <time>2010-08-02T11:38:23Z</time>
      </trkpt>
      <trkpt lat="45.22368" lon="24.10169">
        <ele>1015.982433</ele>
        <time>2010-08-02T11:38:48Z</time>
      </trkpt>
      <trkpt lat="45.22372" lon="24.10165">
        <ele>1017.014311</ele>
        <time>2010-08-02T11:38:54Z</time>
      </trkpt>
      <trkpt lat="45.22375" lon="24.10161">
        <ele>1018.274058</ele>
        <time>2010-08-02T11:38:57Z</time>
      </trkpt>
      <trkpt lat="45.22379" lon="24.10156">
        <ele>1020.150572</ele>
        <time>2010-08-02T11:39:00Z</time>
      </trkpt>
      <trkpt lat="45.22382" lon="24.10151">
        <ele>1023.014996</ele>
        <time>2010-08-02T11:39:03Z</time>
      </trkpt>
      <trkpt lat="45.22387" lon="24.10145">
        <ele>1025.71934</ele>
        <time>2010-08-02T11:39:09Z</time>
      </trkpt>
      <trkpt lat="45.22389" lon="24.10142">
        <ele>1027.074955</ele>
        <time>2010-08-02T11:39:12Z</time>
      </trkpt>
      <trkpt lat="45.22393" lon="24.10138">
        <ele>1027.185625</ele>
        <time>2010-08-02T11:39:16Z</time>
      </trkpt>
      <trkpt lat="45.22395" lon="24.10135">
        <ele>1026.626613</ele>
        <time>2010-08-02T11:39:18Z</time>
      </trkpt>
      <trkpt lat="45.22401" lon="24.10127">
        <ele>1026.036544</ele>
        <time>2010-08-02T11:39:24Z</time>
      </trkpt>
      <trkpt lat="45.22402" lon="24.10124">
        <ele>1025.613929</ele>
        <time>2010-08-02T11:39:27Z</time>
      </trkpt>
      <trkpt lat="45.22405" lon="24.10116">
        <ele>1025.208274</ele>
        <time>2010-08-02T11:39:30Z</time>
      </trkpt>
      <trkpt lat="45.2241" lon="24.10103">
        <ele>1024.747291</ele>
        <time>2010-08-02T11:39:39Z</time>
      </trkpt>
      <trkpt lat="45.22411" lon="24.10094">
        <ele>1024.260241</ele>
        <time>2010-08-02T11:39:44Z</time>
      </trkpt>
      <trkpt lat="45.2241" lon="24.10089">
        <ele>1023.887162</ele>
        <time>2010-08-02T11:39:47Z</time>
      </trkpt>
      <trkpt lat="45.22408" lon="24.10084">
        <ele>1023.745391</ele>
        <time>2010-08-02T11:39:51Z</time>
      </trkpt>
      <trkpt lat="45.22407" lon="24.1008">
        <ele>1023.745082</ele>
        <time>2010-08-02T11:39:54Z</time>
      </trkpt>
      <trkpt lat="45.22405" lon="24.10075">
        <ele>1023.923422</ele>
        <time>2010-08-02T11:39:57Z</time>
      </trkpt>
      <trkpt lat="45.224" lon="24.10068">
        <ele>1024.313603</ele>
        <time>2010-08-02T11:40:02Z</time>
      </trkpt>
      <trkpt lat="45.22396" lon="24.10062">
        <ele>1024.69437</ele>
        <time>2010-08-02T11:40:07Z</time>
      </trkpt>
      <trkpt lat="45.2239" lon="24.10056">
        <ele>1025.007702</ele>
        <time>2010-08-02T11:40:14Z</time>
      </trkpt>
      <trkpt lat="45.22387" lon="24.10053">
        <ele>1025.528992</ele>
        <time>2010-08-02T11:40:17Z</time>
      </trkpt>
      <trkpt lat="45.22387" lon="24.10053">
        <ele>1026.225874</ele>
        <time>2010-08-02T11:40:27Z</time>
      </trkpt>
      <trkpt lat="45.2237" lon="24.10022">
        <ele>1026.739557</ele>
        <time>2010-08-02T11:40:56Z</time>
      </trkpt>
      <trkpt lat="45.22368" lon="24.10018">
        <ele>1026.789094</ele>
        <time>2010-08-02T11:41:02Z</time>
      </trkpt>
      <trkpt lat="45.22368" lon="24.10013">
        <ele>1026.220736</ele>
        <time>2010-08-02T11:41:06Z</time>
      </trkpt>
      <trkpt lat="45.22367" lon="24.10006">
        <ele>1025.191404</ele>
        <time>2010-08-02T11:41:09Z</time>
      </trkpt>
      <trkpt lat="45.22366" lon="24.10002">
        <ele>1024.102465</ele>
        <time>2010-08-02T11:41:11Z</time>
      </trkpt>
      <trkpt lat="45.22362" lon="24.09993">
        <ele>1023.247817</ele>
        <time>2010-08-02T11:41:19Z</time>
      </trkpt>
      <trkpt lat="45.2236" lon="24.09982">
        <ele>1022.777236</ele>
        <time>2010-08-02T11:41:27Z</time>
      </trkpt>
      <trkpt lat="45.22358" lon="24.09976">
        <ele>1022.666883</ele>
        <time>2010-08-02T11:41:30Z</time>
      </trkpt>
      <trkpt lat="45.22353" lon="24.09965">
        <ele>1022.856159</ele>
        <time>2010-08-02T11:41:39Z</time>
      </trkpt>
      <trkpt lat="45.22348" lon="24.09959">
        <ele>1023.285917</ele>
        <time>2010-08-02T11:41:48Z</time>
      </trkpt>
      <trkpt lat="45.22345" lon="24.09957">
        <ele>1023.69333</ele>
        <time>2010-08-02T11:41:52Z</time>
      </trkpt>
      <trkpt lat="45.22338" lon="24.09952">
        <ele>1024.015421</ele>
        <time>2010-08-02T11:42:01Z</time>
      </trkpt>
      <trkpt lat="45.22336" lon="24.0995">
        <ele>1024.397528</ele>
        <time>2010-08-02T11:42:04Z</time>
      </trkpt>
      <trkpt lat="45.22332" lon="24.09946">
        <ele>1024.731267</ele>
        <time>2010-08-02T11:42:09Z</time>
      </trkpt>
      <trkpt lat="45.22324" lon="24.09939">
        <ele>1024.873356</ele>
        <time>2010-08-02T11:42:18Z</time>
      </trkpt>
      <trkpt lat="45.2232" lon="24.09935">
        <ele>1025.023291</ele>
        <time>2010-08-02T11:42:23Z</time>
      </trkpt>
      <trkpt lat="45.22318" lon="24.09932">
        <ele>1025.213361</ele>
        <time>2010-08-02T11:42:26Z</time>
      </trkpt>
      <trkpt lat="45.22318" lon="24.09932">
        <ele>1025.195759</ele>
        <time>2010-08-02T11:42:36Z</time>
      </trkpt>
      <trkpt lat="45.22318" lon="24.09932">
        <ele>1024.99019</ele>
        <time>2010-08-02T11:43:10Z</time>
      </trkpt>
    </trkseg>
  </trk>
</gpx>